createdAt,value
2018-11-05T10:40:17.399Z,12.60
2018-11-05T10:42:46.888Z,13.00
2018-11-05T10:45:16.491Z,13.20
2018-11-05T10:47:45.114Z,13.00
2018-11-05T10:50:15.158Z,13.00
2018-11-05T10:52:45.085Z,12.80
2018-11-05T10:55:13.648Z,13.10
2018-11-05T10:57:42.766Z,13.10
2018-11-05T11:00:21.803Z,12.80
2018-11-05T11:02:55.622Z,12.70
2018-11-05T11:05:24.828Z,12.90
2018-11-05T11:07:54.705Z,13.20
2018-11-05T11:10:23.808Z,13.30
2018-11-05T11:12:52.406Z,13.40
2018-11-05T11:15:21.230Z,14.50
2018-11-05T11:17:50.051Z,15.10
2018-11-05T11:20:18.579Z,15.50
2018-11-05T11:22:47.148Z,15.80
2018-11-05T11:25:15.868Z,14.70
2018-11-05T11:27:44.648Z,14.10
2018-11-05T11:30:14.445Z,13.70
2018-11-05T11:32:43.432Z,13.20
2018-11-05T11:35:12.447Z,13.10
2018-11-05T11:37:41.343Z,13.20
2018-11-05T11:40:12.804Z,13.20
2018-11-05T11:42:42.335Z,13.50
2018-11-05T11:45:11.615Z,13.40
2018-11-05T11:47:40.137Z,13.20
2018-11-05T11:50:10.500Z,13.40
2018-11-05T11:52:39.159Z,13.40
2018-11-05T11:55:09.584Z,13.50
2018-11-05T11:57:38.198Z,13.50
2018-11-05T12:00:09.202Z,13.70
2018-11-05T12:02:37.975Z,13.70
2018-11-05T12:05:07.304Z,13.80
2018-11-05T12:07:35.915Z,14.40
2018-11-05T12:10:06.122Z,14.40
2018-11-05T12:12:34.664Z,14.40
2018-11-05T12:15:03.711Z,14.10
2018-11-05T12:17:32.203Z,14.00
2018-11-05T12:20:00.701Z,15.00
2018-11-05T12:22:29.607Z,14.40
2018-11-05T12:24:58.194Z,14.50
2018-11-05T12:27:26.878Z,14.40
2018-11-05T12:29:55.428Z,14.10
2018-11-05T12:32:23.968Z,14.50
2018-11-05T12:34:52.574Z,15.00
2018-11-05T12:37:21.184Z,14.70
2018-11-05T12:39:49.730Z,14.40
2018-11-05T12:42:18.279Z,14.70
2018-11-05T12:44:47.450Z,16.20
2018-11-05T12:47:16.082Z,17.10
2018-11-05T12:49:44.600Z,17.00
2018-11-05T12:52:13.342Z,16.20
2018-11-05T12:54:41.898Z,17.40
2018-11-05T12:57:10.519Z,16.50
2018-11-05T12:59:39.118Z,15.70
2018-11-05T13:02:07.727Z,15.60
2018-11-05T13:04:36.256Z,16.70
2018-11-05T13:07:04.931Z,16.30
2018-11-05T13:09:33.527Z,16.60
2018-11-05T13:12:02.103Z,16.10
2018-11-05T13:14:30.738Z,17.50
2018-11-05T13:16:59.240Z,18.80
2018-11-05T13:19:27.757Z,19.50
2018-11-05T13:21:56.404Z,19.00
2018-11-05T13:24:25.016Z,19.30
2018-11-05T13:26:53.566Z,19.80
2018-11-05T13:29:22.053Z,19.60
2018-11-05T13:31:51.400Z,17.00
2018-11-05T13:34:19.944Z,16.60
2018-11-05T13:36:48.612Z,17.30
2018-11-05T13:39:17.131Z,18.50
2018-11-05T13:41:45.601Z,19.80
2018-11-05T13:44:14.094Z,18.70
2018-11-05T13:46:43.034Z,19.40
2018-11-05T13:49:12.117Z,19.90
2018-11-05T13:51:40.382Z,18.60
2018-11-05T13:54:08.951Z,16.40
2018-11-05T13:56:37.584Z,16.80
2018-11-05T13:59:06.038Z,17.20
2018-11-05T14:01:34.489Z,17.50
2018-11-05T14:04:03.146Z,17.60
2018-11-05T14:06:31.680Z,17.50
2018-11-05T14:09:00.611Z,17.00
2018-11-05T14:11:29.405Z,16.50
2018-11-05T14:13:58.097Z,16.20
2018-11-05T14:16:26.743Z,16.00
2018-11-05T14:18:55.434Z,15.90
2018-11-05T14:21:23.886Z,15.40
2018-11-05T14:23:52.553Z,15.40
2018-11-05T14:26:21.067Z,15.00
2018-11-05T14:28:50.154Z,14.70
2018-11-05T14:31:18.478Z,14.80
2018-11-05T14:33:47.175Z,14.80
2018-11-05T14:36:15.674Z,14.60
2018-11-05T14:38:44.147Z,14.50
2018-11-05T14:41:12.670Z,14.10
2018-11-05T14:43:41.314Z,13.90
2018-11-05T14:46:09.969Z,13.70
2018-11-05T14:48:38.478Z,13.50
2018-11-05T14:51:07.211Z,13.40
2018-11-05T14:53:35.996Z,13.30
2018-11-05T14:56:04.929Z,13.30
2018-11-05T14:58:33.409Z,13.10
2018-11-05T15:01:01.916Z,13.00
2018-11-05T15:03:30.698Z,12.90
2018-11-05T15:05:59.280Z,12.90
2018-11-05T15:08:27.828Z,12.80
2018-11-05T15:10:56.352Z,12.70
2018-11-05T15:13:24.802Z,12.70
2018-11-05T15:15:53.323Z,12.60
2018-11-05T15:18:21.898Z,12.60
2018-11-05T15:20:50.533Z,12.60
2018-11-05T15:23:19.156Z,12.60
2018-11-05T15:25:47.712Z,12.60
2018-11-05T15:28:16.271Z,12.60
2018-11-05T15:30:45.074Z,12.60
2018-11-05T15:33:13.549Z,12.60
2018-11-05T15:35:42.257Z,12.60
2018-11-05T15:38:10.781Z,12.50
2018-11-05T15:40:39.359Z,12.50
2018-11-05T15:43:07.845Z,12.40
2018-11-05T15:45:36.350Z,12.40
2018-11-05T15:48:05.114Z,12.40
2018-11-05T15:50:33.677Z,12.30
2018-11-05T15:53:02.689Z,12.20
2018-11-05T15:55:31.110Z,12.00
2018-11-05T15:57:59.762Z,11.90
2018-11-05T16:00:28.631Z,11.80
2018-11-05T16:02:59.737Z,11.70
2018-11-05T16:05:28.832Z,11.70
2018-11-05T16:07:57.585Z,11.70
2018-11-05T16:10:26.293Z,11.70
2018-11-05T16:12:54.967Z,11.70
2018-11-05T16:15:23.577Z,11.60
2018-11-05T16:17:52.806Z,11.40
2018-11-05T16:20:22.452Z,11.20
2018-11-05T16:22:51.869Z,10.90
2018-11-05T16:25:20.800Z,10.80
2018-11-05T16:27:49.576Z,10.70
2018-11-05T16:30:19.476Z,10.60
2018-11-05T16:32:48.868Z,10.80
2018-11-05T16:35:17.986Z,10.90
2018-11-05T16:37:46.823Z,10.90
2018-11-05T16:40:16.615Z,10.90
2018-11-05T16:42:49.844Z,10.80
2018-11-05T16:48:16.022Z,10.60
2018-11-05T16:50:44.812Z,10.60
2018-11-05T16:53:13.588Z,10.50
2018-11-05T16:55:42.373Z,10.50
2018-11-05T16:58:11.153Z,10.50
2018-11-05T17:00:40.192Z,10.40
2018-11-05T17:03:08.973Z,10.30
2018-11-05T17:05:37.896Z,10.20
2018-11-05T17:08:08.045Z,10.20
2018-11-05T17:10:36.791Z,10.10
2018-11-05T17:13:06.276Z,10.20
2018-11-05T17:15:35.164Z,10.30
2018-11-05T17:18:03.972Z,10.20
2018-11-05T17:20:32.570Z,10.20
2018-11-05T17:23:01.295Z,10.20
2018-11-05T17:25:29.990Z,10.20
2018-11-05T17:27:58.673Z,10.30
2018-11-05T17:30:27.516Z,10.30
2018-11-05T17:32:56.557Z,10.20
2018-11-05T17:35:25.207Z,10.20
2018-11-05T17:37:53.995Z,10.20
2018-11-05T17:40:23.191Z,10.10
2018-11-05T17:42:52.003Z,10.10
2018-11-05T17:45:20.903Z,10.00
2018-11-05T17:47:49.757Z,9.90
2018-11-05T17:50:19.738Z,9.90
2018-11-05T17:52:48.439Z,10.00
2018-11-05T17:55:17.520Z,10.00
2018-11-05T17:57:47.080Z,10.10
2018-11-05T18:00:17.045Z,10.00
2018-11-05T18:02:46.335Z,10.00
2018-11-05T18:05:15.487Z,10.00
2018-11-05T18:07:44.578Z,10.00
2018-11-05T18:10:13.406Z,9.90
2018-11-05T18:12:42.152Z,9.90
2018-11-05T18:15:11.942Z,9.90
2018-11-05T18:17:41.531Z,9.80
2018-11-05T18:20:11.710Z,9.70
2018-11-05T18:22:40.639Z,9.60
2018-11-05T18:25:15.299Z,9.60
2018-11-05T18:27:44.135Z,9.50
2018-11-05T18:30:13.691Z,9.30
2018-11-05T18:32:42.665Z,9.20
2018-11-05T18:35:12.405Z,8.90
2018-11-05T18:37:41.671Z,8.90
2018-11-05T18:40:11.907Z,8.80
2018-11-05T18:42:41.128Z,8.70
2018-11-05T18:45:10.119Z,8.60
2018-11-05T18:47:39.010Z,8.60
2018-11-05T18:50:10.073Z,8.50
2018-11-05T18:52:39.892Z,8.50
2018-11-05T18:55:10.011Z,8.60
2018-11-05T18:57:39.065Z,8.60
2018-11-05T19:00:16.116Z,8.60
2018-11-05T19:02:45.057Z,8.60
2018-11-05T19:05:15.301Z,8.60
2018-11-05T19:07:43.884Z,8.60
2018-11-05T19:10:12.622Z,8.60
2018-11-05T19:12:41.362Z,8.60
2018-11-05T19:15:11.419Z,8.50
2018-11-05T19:17:40.153Z,8.60
2018-11-05T19:20:10.216Z,8.70
2018-11-05T19:22:39.791Z,8.70
2018-11-05T19:25:09.728Z,8.80
2018-11-05T19:27:38.867Z,8.80
2018-11-05T19:30:10.724Z,8.80
2018-11-05T19:32:39.564Z,8.80
2018-11-05T19:35:09.649Z,8.80
2018-11-05T19:37:44.168Z,8.80
2018-11-05T19:40:13.995Z,8.80
2018-11-05T19:42:43.706Z,8.70
2018-11-05T19:45:13.850Z,8.70
2018-11-05T19:47:42.521Z,8.70
2018-11-05T19:50:13.390Z,8.70
2018-11-05T19:52:43.085Z,8.80
2018-11-05T19:55:13.663Z,8.80
2018-11-05T19:57:43.149Z,8.70
2018-11-05T20:00:17.662Z,8.70
2018-11-05T20:02:46.985Z,8.70
2018-11-05T20:05:15.927Z,8.70
2018-11-05T20:07:45.502Z,8.70
2018-11-05T20:10:14.451Z,8.70
2018-11-05T20:12:44.025Z,8.70
2018-11-05T20:15:13.485Z,8.70
2018-11-05T20:17:43.086Z,8.80
2018-11-05T20:20:13.219Z,8.70
2018-11-05T20:22:41.904Z,8.80
2018-11-05T20:25:11.056Z,8.80
2018-11-05T20:27:40.253Z,8.70
2018-11-05T20:30:11.056Z,8.60
2018-11-05T20:32:40.268Z,8.60
2018-11-05T20:35:09.189Z,8.60
2018-11-05T20:37:38.082Z,8.60
2018-11-05T20:40:08.501Z,8.70
2018-11-05T20:42:37.079Z,8.70
2018-11-05T20:45:05.757Z,8.70
2018-11-05T20:47:34.419Z,8.70
2018-11-05T20:50:03.140Z,8.70
2018-11-05T20:52:31.894Z,8.80
2018-11-05T20:55:00.668Z,8.80
2018-11-05T20:57:29.272Z,8.80
2018-11-05T20:59:57.872Z,8.90
2018-11-05T21:02:26.632Z,8.90
2018-11-05T21:04:55.405Z,8.90
2018-11-05T21:07:24.092Z,8.90
2018-11-05T21:09:56.595Z,9.00
2018-11-05T21:12:25.287Z,9.00
2018-11-05T21:14:54.148Z,9.00
2018-11-05T21:17:23.184Z,8.90
2018-11-05T21:19:51.824Z,8.80
2018-11-05T21:22:20.583Z,8.80
2018-11-05T21:24:49.360Z,8.70
2018-11-05T21:27:17.991Z,8.60
2018-11-05T21:29:46.792Z,8.50
2018-11-05T21:32:15.587Z,8.50
2018-11-05T21:34:44.325Z,8.70
2018-11-05T21:37:13.019Z,8.80
2018-11-05T21:39:41.690Z,9.00
2018-11-05T21:42:10.357Z,9.10
2018-11-05T21:44:46.439Z,9.10
2018-11-05T21:47:15.307Z,9.20
2018-11-05T21:49:44.280Z,9.10
2018-11-05T21:52:13.994Z,9.10
2018-11-05T21:54:42.717Z,9.10
2018-11-05T21:57:11.402Z,9.20
2018-11-05T21:59:40.232Z,9.20
2018-11-05T22:02:08.904Z,9.20
2018-11-05T22:04:37.573Z,9.30
2018-11-05T22:07:06.313Z,9.30
2018-11-05T22:09:35.103Z,9.40
2018-11-05T22:12:03.907Z,9.40
2018-11-05T22:14:32.554Z,9.50
2018-11-05T22:17:01.337Z,9.40
2018-11-05T22:19:30.012Z,9.40
2018-11-05T22:21:58.565Z,9.30
2018-11-05T22:24:27.141Z,9.30
2018-11-05T22:26:55.799Z,9.20
2018-11-05T22:29:24.448Z,9.10
2018-11-05T22:31:53.102Z,9.10
2018-11-05T22:34:22.065Z,9.10
2018-11-05T22:36:50.711Z,9.10
2018-11-05T22:39:19.487Z,9.20
2018-11-05T22:41:48.440Z,9.20
2018-11-05T22:44:16.972Z,9.20
2018-11-05T22:46:45.591Z,9.10
2018-11-05T22:49:14.242Z,9.10
2018-11-05T22:51:43.276Z,9.20
2018-11-05T22:54:12.549Z,9.30
2018-11-05T22:56:41.546Z,9.30
2018-11-05T22:59:10.806Z,9.20
2018-11-05T23:01:45.067Z,9.00
2018-11-05T23:04:14.167Z,8.90
2018-11-05T23:06:43.449Z,8.80
2018-11-05T23:09:12.709Z,8.70
2018-11-05T23:11:42.059Z,8.80
2018-11-05T23:14:11.087Z,8.80
2018-11-05T23:16:40.148Z,8.70
2018-11-05T23:19:09.788Z,8.70
2018-11-05T23:21:38.957Z,8.80
2018-11-05T23:24:08.006Z,8.80
2018-11-05T23:26:37.262Z,8.90
2018-11-05T23:29:06.384Z,9.00
2018-11-05T23:31:35.399Z,9.10
2018-11-05T23:34:05.067Z,9.10
2018-11-05T23:36:34.245Z,9.20
